sensor_id;sensor_type;location;lat;lon;timestamp;temperature;humidity
48551;DHT22;34397;51.176;6.738;2022-10-16T00:00:02;13.10;72.50
48551;DHT22;34397;51.176;6.738;2022-10-16T00:02:34;13.10;72.70
48551;DHT22;34397;51.176;6.738;2022-10-16T00:05:06;13.20;72.80
48551;DHT22;34397;51.176;6.738;2022-10-16T00:07:38;13.10;72.70
48551;DHT22;34397;51.176;6.738;2022-10-16T00:10:10;13.00;72.60
48551;DHT22;34397;51.176;6.738;2022-10-16T00:12:43;13.00;72.70
48551;DHT22;34397;51.176;6.738;2022-10-16T00:15:15;13.00;72.60
48551;DHT22;34397;51.176;6.738;2022-10-16T00:17:47;13.00;72.80
48551;DHT22;34397;51.176;6.738;2022-10-16T00:20:19;13.00;72.70
48551;DHT22;34397;51.176;6.738;2022-10-16T00:22:51;13.00;72.60
48551;DHT22;34397;51.176;6.738;2022-10-16T00:25:22;13.00;72.70
48551;DHT22;34397;51.176;6.738;2022-10-16T00:27:56;12.90;72.70
48551;DHT22;34397;51.176;6.738;2022-10-16T00:30:28;12.90;73.30
48551;DHT22;34397;51.176;6.738;2022-10-16T00:33:00;12.90;73.00
48551;DHT22;34397;51.176;6.738;2022-10-16T00:35:32;12.90;73.10
48551;DHT22;34397;51.176;6.738;2022-10-16T00:38:04;12.90;73.20
48551;DHT22;34397;51.176;6.738;2022-10-16T00:40:36;12.90;73.30
48551;DHT22;34397;51.176;6.738;2022-10-16T00:43:14;12.80;73.20
48551;DHT22;34397;51.176;6.738;2022-10-16T00:46:08;12.80;72.80
48551;DHT22;34397;51.176;6.738;2022-10-16T00:48:47;12.80;73.20
48551;DHT22;34397;51.176;6.738;2022-10-16T00:51:24;12.80;73.30
48551;DHT22;34397;51.176;6.738;2022-10-16T00:53:57;12.80;73.40
48551;DHT22;34397;51.176;6.738;2022-10-16T00:56:31;12.80;73.50
48551;DHT22;34397;51.176;6.738;2022-10-16T00:59:10;12.80;73.60
48551;DHT22;34397;51.176;6.738;2022-10-16T01:01:45;12.70;73.00
48551;DHT22;34397;51.176;6.738;2022-10-16T01:04:17;12.70;73.50
48551;DHT22;34397;51.176;6.738;2022-10-16T01:06:58;12.70;73.60
48551;DHT22;34397;51.176;6.738;2022-10-16T01:09:39;12.70;73.30
48551;DHT22;34397;51.176;6.738;2022-10-16T01:12:24;12.70;73.30
48551;DHT22;34397;51.176;6.738;2022-10-16T01:15:12;12.70;73.30
48551;DHT22;34397;51.176;6.738;2022-10-16T01:17:51;12.70;73.30
48551;DHT22;34397;51.176;6.738;2022-10-16T01:20:27;12.70;73.80
48551;DHT22;34397;51.176;6.738;2022-10-16T01:23:15;12.70;73.90
48551;DHT22;34397;51.176;6.738;2022-10-16T01:26:15;12.70;73.30
48551;DHT22;34397;51.176;6.738;2022-10-16T01:28:59;12.70;73.00
48551;DHT22;34397;51.176;6.738;2022-10-16T01:31:37;12.70;73.40
48551;DHT22;34397;51.176;6.738;2022-10-16T01:34:15;12.70;73.50
48551;DHT22;34397;51.176;6.738;2022-10-16T01:36:53;12.60;73.50
48551;DHT22;34397;51.176;6.738;2022-10-16T01:39:30;12.60;73.40
48551;DHT22;34397;51.176;6.738;2022-10-16T01:42:07;12.70;73.90
48551;DHT22;34397;51.176;6.738;2022-10-16T01:44:43;12.60;73.50
48551;DHT22;34397;51.176;6.738;2022-10-16T01:47:17;12.60;74.20
48551;DHT22;34397;51.176;6.738;2022-10-16T01:49:52;12.60;73.90
48551;DHT22;34397;51.176;6.738;2022-10-16T01:52:26;12.60;73.70
48551;DHT22;34397;51.176;6.738;2022-10-16T01:55:02;12.60;73.70
48551;DHT22;34397;51.176;6.738;2022-10-16T01:57:37;12.60;73.70
48551;DHT22;34397;51.176;6.738;2022-10-16T02:00:14;12.60;73.70
48551;DHT22;34397;51.176;6.738;2022-10-16T02:02:49;12.70;73.80
48551;DHT22;34397;51.176;6.738;2022-10-16T02:05:26;12.70;74.00
48551;DHT22;34397;51.176;6.738;2022-10-16T02:08:00;12.70;73.90
48551;DHT22;34397;51.176;6.738;2022-10-16T02:10:32;12.70;74.00
48551;DHT22;34397;51.176;6.738;2022-10-16T02:13:09;12.70;73.90
48551;DHT22;34397;51.176;6.738;2022-10-16T02:15:43;12.80;73.70
48551;DHT22;34397;51.176;6.738;2022-10-16T02:18:15;12.70;73.40
48551;DHT22;34397;51.176;6.738;2022-10-16T02:20:51;12.70;73.60
48551;DHT22;34397;51.176;6.738;2022-10-16T02:23:29;12.70;73.10
48551;DHT22;34397;51.176;6.738;2022-10-16T02:26:07;12.70;73.10
48551;DHT22;34397;51.176;6.738;2022-10-16T02:28:43;12.70;73.00
48551;DHT22;34397;51.176;6.738;2022-10-16T02:31:22;12.70;73.00
48551;DHT22;34397;51.176;6.738;2022-10-16T02:33:58;12.80;72.80
48551;DHT22;34397;51.176;6.738;2022-10-16T02:36:32;12.80;72.80
48551;DHT22;34397;51.176;6.738;2022-10-16T02:39:05;12.80;72.90
48551;DHT22;34397;51.176;6.738;2022-10-16T02:41:38;12.80;72.80
48551;DHT22;34397;51.176;6.738;2022-10-16T02:44:10;12.80;72.80
48551;DHT22;34397;51.176;6.738;2022-10-16T02:46:43;12.80;72.60
48551;DHT22;34397;51.176;6.738;2022-10-16T02:49:15;12.80;72.30
48551;DHT22;34397;51.176;6.738;2022-10-16T02:51:47;12.80;72.50
48551;DHT22;34397;51.176;6.738;2022-10-16T02:54:18;12.80;72.30
48551;DHT22;34397;51.176;6.738;2022-10-16T02:56:50;12.80;72.10
48551;DHT22;34397;51.176;6.738;2022-10-16T02:59:22;12.80;72.10
48551;DHT22;34397;51.176;6.738;2022-10-16T03:01:56;12.80;72.00
48551;DHT22;34397;51.176;6.738;2022-10-16T03:04:27;12.80;71.80
48551;DHT22;34397;51.176;6.738;2022-10-16T03:07:00;12.80;71.90
48551;DHT22;34397;51.176;6.738;2022-10-16T03:09:32;12.80;71.60
48551;DHT22;34397;51.176;6.738;2022-10-16T03:12:04;12.80;72.00
48551;DHT22;34397;51.176;6.738;2022-10-16T03:14:36;12.80;72.00
48551;DHT22;34397;51.176;6.738;2022-10-16T03:17:09;12.80;72.10
48551;DHT22;34397;51.176;6.738;2022-10-16T03:19:41;12.80;72.00
48551;DHT22;34397;51.176;6.738;2022-10-16T03:22:13;12.80;72.00
48551;DHT22;34397;51.176;6.738;2022-10-16T03:24:45;12.70;72.00
48551;DHT22;34397;51.176;6.738;2022-10-16T03:27:17;12.70;72.00
48551;DHT22;34397;51.176;6.738;2022-10-16T03:29:48;12.70;72.00
48551;DHT22;34397;51.176;6.738;2022-10-16T03:32:22;12.70;72.00
48551;DHT22;34397;51.176;6.738;2022-10-16T03:34:55;12.70;71.90
48551;DHT22;34397;51.176;6.738;2022-10-16T03:37:27;12.70;72.00
48551;DHT22;34397;51.176;6.738;2022-10-16T03:39:59;12.70;71.90
48551;DHT22;34397;51.176;6.738;2022-10-16T03:42:31;12.70;71.80
48551;DHT22;34397;51.176;6.738;2022-10-16T03:45:03;12.70;71.60
48551;DHT22;34397;51.176;6.738;2022-10-16T03:47:37;12.60;71.60
48551;DHT22;34397;51.176;6.738;2022-10-16T03:50:09;12.60;71.40
48551;DHT22;34397;51.176;6.738;2022-10-16T03:52:41;12.60;71.50
48551;DHT22;34397;51.176;6.738;2022-10-16T03:55:13;12.60;71.40
48551;DHT22;34397;51.176;6.738;2022-10-16T03:57:45;12.60;71.30
48551;DHT22;34397;51.176;6.738;2022-10-16T04:00:16;12.60;71.40
48551;DHT22;34397;51.176;6.738;2022-10-16T04:02:50;12.60;71.40
48551;DHT22;34397;51.176;6.738;2022-10-16T04:05:22;12.60;71.50
48551;DHT22;34397;51.176;6.738;2022-10-16T04:07:54;12.50;71.60
48551;DHT22;34397;51.176;6.738;2022-10-16T04:10:26;12.50;71.50
48551;DHT22;34397;51.176;6.738;2022-10-16T04:12:58;12.50;71.50
48551;DHT22;34397;51.176;6.738;2022-10-16T04:15:30;12.50;71.50
48551;DHT22;34397;51.176;6.738;2022-10-16T04:18:03;12.50;71.30
48551;DHT22;34397;51.176;6.738;2022-10-16T04:20:36;12.50;71.30
48551;DHT22;34397;51.176;6.738;2022-10-16T04:23:07;12.40;71.30
48551;DHT22;34397;51.176;6.738;2022-10-16T04:25:39;12.40;71.30
48551;DHT22;34397;51.176;6.738;2022-10-16T04:28:11;12.40;71.10
48551;DHT22;34397;51.176;6.738;2022-10-16T04:30:43;12.40;71.10
48551;DHT22;34397;51.176;6.738;2022-10-16T04:33:16;12.40;71.30
48551;DHT22;34397;51.176;6.738;2022-10-16T04:35:48;12.40;71.10
48551;DHT22;34397;51.176;6.738;2022-10-16T04:38:20;12.40;71.30
48551;DHT22;34397;51.176;6.738;2022-10-16T04:40:52;12.40;71.30
48551;DHT22;34397;51.176;6.738;2022-10-16T04:43:24;12.40;71.30
48551;DHT22;34397;51.176;6.738;2022-10-16T04:45:56;12.40;71.50
48551;DHT22;34397;51.176;6.738;2022-10-16T04:48:29;12.30;71.50
48551;DHT22;34397;51.176;6.738;2022-10-16T04:51:01;12.30;71.50
48551;DHT22;34397;51.176;6.738;2022-10-16T04:53:32;12.30;71.40
48551;DHT22;34397;51.176;6.738;2022-10-16T04:56:05;12.30;71.50
48551;DHT22;34397;51.176;6.738;2022-10-16T04:58:37;12.30;71.40
48551;DHT22;34397;51.176;6.738;2022-10-16T05:01:09;12.30;71.40
48551;DHT22;34397;51.176;6.738;2022-10-16T05:03:42;12.30;71.40
48551;DHT22;34397;51.176;6.738;2022-10-16T05:06:13;12.20;71.40
48551;DHT22;34397;51.176;6.738;2022-10-16T05:08:45;12.20;71.30
48551;DHT22;34397;51.176;6.738;2022-10-16T05:11:17;12.30;71.50
48551;DHT22;34397;51.176;6.738;2022-10-16T05:13:49;12.20;71.60
48551;DHT22;34397;51.176;6.738;2022-10-16T05:16:21;12.20;72.50
48551;DHT22;34397;51.176;6.738;2022-10-16T05:18:54;12.20;71.80
48551;DHT22;34397;51.176;6.738;2022-10-16T05:21:26;12.20;71.80
48551;DHT22;34397;51.176;6.738;2022-10-16T05:23:58;12.20;71.80
48551;DHT22;34397;51.176;6.738;2022-10-16T05:26:30;12.20;71.80
48551;DHT22;34397;51.176;6.738;2022-10-16T05:29:01;12.20;71.90
48551;DHT22;34397;51.176;6.738;2022-10-16T05:31:33;12.20;72.10
48551;DHT22;34397;51.176;6.738;2022-10-16T05:34:07;12.20;72.00
48551;DHT22;34397;51.176;6.738;2022-10-16T05:36:38;12.20;72.00
48551;DHT22;34397;51.176;6.738;2022-10-16T05:39:11;12.20;72.10
48551;DHT22;34397;51.176;6.738;2022-10-16T05:41:44;12.20;71.80
48551;DHT22;34397;51.176;6.738;2022-10-16T05:44:16;12.20;71.90
48551;DHT22;34397;51.176;6.738;2022-10-16T05:46:47;12.20;71.80
48551;DHT22;34397;51.176;6.738;2022-10-16T05:49:21;12.20;71.80
48551;DHT22;34397;51.176;6.738;2022-10-16T05:51:52;12.10;71.80
48551;DHT22;34397;51.176;6.738;2022-10-16T05:54:24;12.20;71.90
48551;DHT22;34397;51.176;6.738;2022-10-16T05:56:56;12.20;71.80
48551;DHT22;34397;51.176;6.738;2022-10-16T05:59:28;12.20;72.10
48551;DHT22;34397;51.176;6.738;2022-10-16T06:02:00;12.20;72.10
48551;DHT22;34397;51.176;6.738;2022-10-16T06:04:33;12.20;72.10
48551;DHT22;34397;51.176;6.738;2022-10-16T06:07:05;12.20;72.20
48551;DHT22;34397;51.176;6.738;2022-10-16T06:09:36;12.20;72.30
48551;DHT22;34397;51.176;6.738;2022-10-16T06:12:08;12.20;72.40
48551;DHT22;34397;51.176;6.738;2022-10-16T06:14:40;12.20;72.50
48551;DHT22;34397;51.176;6.738;2022-10-16T06:17:12;12.20;72.60
48551;DHT22;34397;51.176;6.738;2022-10-16T06:19:45;12.20;72.60
48551;DHT22;34397;51.176;6.738;2022-10-16T06:22:17;12.20;72.60
48551;DHT22;34397;51.176;6.738;2022-10-16T06:24:49;12.20;72.60
48551;DHT22;34397;51.176;6.738;2022-10-16T06:27:21;12.20;72.50
48551;DHT22;34397;51.176;6.738;2022-10-16T06:29:52;12.20;72.60
48551;DHT22;34397;51.176;6.738;2022-10-16T06:32:24;12.20;72.60
48551;DHT22;34397;51.176;6.738;2022-10-16T06:34:57;12.20;72.50
48551;DHT22;34397;51.176;6.738;2022-10-16T06:37:29;12.20;72.60
48551;DHT22;34397;51.176;6.738;2022-10-16T06:40:01;12.20;72.70
48551;DHT22;34397;51.176;6.738;2022-10-16T06:42:34;12.30;72.40
48551;DHT22;34397;51.176;6.738;2022-10-16T06:45:07;12.30;72.30
48551;DHT22;34397;51.176;6.738;2022-10-16T06:47:39;12.20;72.50
48551;DHT22;34397;51.176;6.738;2022-10-16T06:50:12;12.30;72.50
48551;DHT22;34397;51.176;6.738;2022-10-16T06:52:44;12.20;72.60
48551;DHT22;34397;51.176;6.738;2022-10-16T06:55:16;12.30;72.90
48551;DHT22;34397;51.176;6.738;2022-10-16T06:57:48;12.30;72.90
48551;DHT22;34397;51.176;6.738;2022-10-16T07:00:20;12.30;72.90
48551;DHT22;34397;51.176;6.738;2022-10-16T07:02:52;12.30;72.80
48551;DHT22;34397;51.176;6.738;2022-10-16T07:05:25;12.40;72.90
48551;DHT22;34397;51.176;6.738;2022-10-16T07:07:57;12.40;72.70
48551;DHT22;34397;51.176;6.738;2022-10-16T07:10:28;12.50;72.80
48551;DHT22;34397;51.176;6.738;2022-10-16T07:13:00;12.50;72.30
48551;DHT22;34397;51.176;6.738;2022-10-16T07:15:32;12.50;72.30
48551;DHT22;34397;51.176;6.738;2022-10-16T07:18:04;12.60;72.60
48551;DHT22;34397;51.176;6.738;2022-10-16T07:20:37;12.60;72.20
48551;DHT22;34397;51.176;6.738;2022-10-16T07:23:09;12.60;72.20
48551;DHT22;34397;51.176;6.738;2022-10-16T07:25:41;12.60;72.10
48551;DHT22;34397;51.176;6.738;2022-10-16T07:28:13;12.60;72.00
48551;DHT22;34397;51.176;6.738;2022-10-16T07:30:44;12.60;72.00
48551;DHT22;34397;51.176;6.738;2022-10-16T07:33:16;12.60;72.10
48551;DHT22;34397;51.176;6.738;2022-10-16T07:35:51;12.60;72.10
48551;DHT22;34397;51.176;6.738;2022-10-16T07:38:23;12.60;71.90
48551;DHT22;34397;51.176;6.738;2022-10-16T07:40:58;12.60;71.90
48551;DHT22;34397;51.176;6.738;2022-10-16T07:43:31;12.60;71.80
48551;DHT22;34397;51.176;6.738;2022-10-16T07:46:03;12.60;71.80
48551;DHT22;34397;51.176;6.738;2022-10-16T07:48:35;12.60;71.80
48551;DHT22;34397;51.176;6.738;2022-10-16T07:51:09;12.60;71.90
48551;DHT22;34397;51.176;6.738;2022-10-16T07:53:41;12.60;71.90
48551;DHT22;34397;51.176;6.738;2022-10-16T07:56:13;12.70;72.10
48551;DHT22;34397;51.176;6.738;2022-10-16T07:58:46;12.70;72.10
48551;DHT22;34397;51.176;6.738;2022-10-16T08:01:20;12.80;72.00
48551;DHT22;34397;51.176;6.738;2022-10-16T08:03:53;12.80;71.90
48551;DHT22;34397;51.176;6.738;2022-10-16T08:06:26;12.90;72.10
48551;DHT22;34397;51.176;6.738;2022-10-16T08:08:58;12.90;71.90
48551;DHT22;34397;51.176;6.738;2022-10-16T08:11:30;12.90;72.00
48551;DHT22;34397;51.176;6.738;2022-10-16T08:14:02;12.90;71.40
48551;DHT22;34397;51.176;6.738;2022-10-16T08:16:34;13.00;71.50
48551;DHT22;34397;51.176;6.738;2022-10-16T08:19:05;13.00;71.60
48551;DHT22;34397;51.176;6.738;2022-10-16T08:21:39;13.10;71.70
48551;DHT22;34397;51.176;6.738;2022-10-16T08:24:10;13.10;71.60
48551;DHT22;34397;51.176;6.738;2022-10-16T08:26:42;13.20;71.50
48551;DHT22;34397;51.176;6.738;2022-10-16T08:29:14;13.30;71.10
48551;DHT22;34397;51.176;6.738;2022-10-16T08:31:46;13.30;70.90
48551;DHT22;34397;51.176;6.738;2022-10-16T08:34:18;13.40;71.10
48551;DHT22;34397;51.176;6.738;2022-10-16T08:36:52;13.40;70.70
48551;DHT22;34397;51.176;6.738;2022-10-16T08:39:24;13.40;70.80
48551;DHT22;34397;51.176;6.738;2022-10-16T08:42:28;13.50;70.70
48551;DHT22;34397;51.176;6.738;2022-10-16T08:45:26;13.60;70.60
48551;DHT22;34397;51.176;6.738;2022-10-16T08:48:17;13.60;69.30
48551;DHT22;34397;51.176;6.738;2022-10-16T08:50:53;13.70;70.00
48551;DHT22;34397;51.176;6.738;2022-10-16T08:53:31;13.80;69.70
48551;DHT22;34397;51.176;6.738;2022-10-16T08:56:08;13.80;69.30
48551;DHT22;34397;51.176;6.738;2022-10-16T08:58:40;13.90;68.60
48551;DHT22;34397;51.176;6.738;2022-10-16T09:01:14;13.90;68.70
48551;DHT22;34397;51.176;6.738;2022-10-16T09:03:59;14.00;68.50
48551;DHT22;34397;51.176;6.738;2022-10-16T09:06:46;14.00;67.00
48551;DHT22;34397;51.176;6.738;2022-10-16T09:09:36;14.10;67.60
48551;DHT22;34397;51.176;6.738;2022-10-16T09:12:22;14.10;67.00
48551;DHT22;34397;51.176;6.738;2022-10-16T09:15:02;14.20;66.90
48551;DHT22;34397;51.176;6.738;2022-10-16T09:17:52;14.20;66.60
48551;DHT22;34397;51.176;6.738;2022-10-16T09:20:32;14.30;66.80
48551;DHT22;34397;51.176;6.738;2022-10-16T09:23:16;14.40;66.20
48551;DHT22;34397;51.176;6.738;2022-10-16T09:25:51;14.40;65.90
48551;DHT22;34397;51.176;6.738;2022-10-16T09:28:23;14.40;66.40
48551;DHT22;34397;51.176;6.738;2022-10-16T09:30:56;14.50;65.60
48551;DHT22;34397;51.176;6.738;2022-10-16T09:33:30;14.50;65.60
48551;DHT22;34397;51.176;6.738;2022-10-16T09:36:05;14.60;65.30
48551;DHT22;34397;51.176;6.738;2022-10-16T09:38:37;14.60;65.70
48551;DHT22;34397;51.176;6.738;2022-10-16T09:41:15;14.60;65.50
48551;DHT22;34397;51.176;6.738;2022-10-16T09:43:53;14.70;65.20
48551;DHT22;34397;51.176;6.738;2022-10-16T09:46:28;14.70;65.20
48551;DHT22;34397;51.176;6.738;2022-10-16T09:49:03;14.70;64.10
48551;DHT22;34397;51.176;6.738;2022-10-16T09:51:37;14.80;64.10
48551;DHT22;34397;51.176;6.738;2022-10-16T09:54:14;14.80;63.00
48551;DHT22;34397;51.176;6.738;2022-10-16T09:56:48;14.80;63.30
48551;DHT22;34397;51.176;6.738;2022-10-16T09:59:22;14.90;63.60
48551;DHT22;34397;51.176;6.738;2022-10-16T10:02:00;14.90;63.80
48551;DHT22;34397;51.176;6.738;2022-10-16T10:04:40;15.00;63.70
48551;DHT22;34397;51.176;6.738;2022-10-16T10:07:19;15.00;64.00
48551;DHT22;34397;51.176;6.738;2022-10-16T10:09:56;15.10;62.80
48551;DHT22;34397;51.176;6.738;2022-10-16T10:12:31;15.20;62.20
48551;DHT22;34397;51.176;6.738;2022-10-16T10:15:09;15.20;62.20
48551;DHT22;34397;51.176;6.738;2022-10-16T10:17:46;15.30;61.90
48551;DHT22;34397;51.176;6.738;2022-10-16T10:20:25;15.40;62.00
48551;DHT22;34397;51.176;6.738;2022-10-16T10:22:59;15.40;61.90
48551;DHT22;34397;51.176;6.738;2022-10-16T10:25:40;15.60;62.50
48551;DHT22;34397;51.176;6.738;2022-10-16T10:28:45;15.80;60.90
48551;DHT22;34397;51.176;6.738;2022-10-16T10:31:25;16.00;60.00
48551;DHT22;34397;51.176;6.738;2022-10-16T10:34:06;16.20;58.90
48551;DHT22;34397;51.176;6.738;2022-10-16T10:36:54;16.30;59.80
48551;DHT22;34397;51.176;6.738;2022-10-16T10:39:38;16.60;58.60
48551;DHT22;34397;51.176;6.738;2022-10-16T10:42:21;16.90;59.20
48551;DHT22;34397;51.176;6.738;2022-10-16T10:45:04;17.20;57.90
48551;DHT22;34397;51.176;6.738;2022-10-16T10:47:55;17.60;57.40
48551;DHT22;34397;51.176;6.738;2022-10-16T10:50:36;17.90;56.50
48551;DHT22;34397;51.176;6.738;2022-10-16T10:53:21;18.40;55.50
48551;DHT22;34397;51.176;6.738;2022-10-16T10:56:09;18.80;54.60
48551;DHT22;34397;51.176;6.738;2022-10-16T10:59:06;19.20;53.20
48551;DHT22;34397;51.176;6.738;2022-10-16T11:01:53;19.60;53.00
48551;DHT22;34397;51.176;6.738;2022-10-16T11:04:47;20.20;51.60
48551;DHT22;34397;51.176;6.738;2022-10-16T11:07:27;20.70;51.60
48551;DHT22;34397;51.176;6.738;2022-10-16T11:10:07;21.10;49.60
48551;DHT22;34397;51.176;6.738;2022-10-16T11:12:46;21.50;48.30
48551;DHT22;34397;51.176;6.738;2022-10-16T11:15:23;21.90;47.50
48551;DHT22;34397;51.176;6.738;2022-10-16T11:18:04;22.40;46.80
48551;DHT22;34397;51.176;6.738;2022-10-16T11:20:42;23.10;44.80
48551;DHT22;34397;51.176;6.738;2022-10-16T11:23:23;23.50;43.80
48551;DHT22;34397;51.176;6.738;2022-10-16T11:25:59;23.90;44.00
48551;DHT22;34397;51.176;6.738;2022-10-16T11:28:35;24.40;41.50
48551;DHT22;34397;51.176;6.738;2022-10-16T11:31:13;24.90;41.60
48551;DHT22;34397;51.176;6.738;2022-10-16T11:33:53;25.30;38.80
48551;DHT22;34397;51.176;6.738;2022-10-16T11:36:33;25.30;39.10
48551;DHT22;34397;51.176;6.738;2022-10-16T11:39:16;25.30;37.70
48551;DHT22;34397;51.176;6.738;2022-10-16T11:41:53;25.20;38.10
48551;DHT22;34397;51.176;6.738;2022-10-16T11:44:40;25.20;39.10
48551;DHT22;34397;51.176;6.738;2022-10-16T11:47:25;25.20;39.30
48551;DHT22;34397;51.176;6.738;2022-10-16T11:50:03;25.20;39.40
48551;DHT22;34397;51.176;6.738;2022-10-16T11:52:42;25.20;38.70
48551;DHT22;34397;51.176;6.738;2022-10-16T11:55:20;25.20;39.10
48551;DHT22;34397;51.176;6.738;2022-10-16T11:57:54;25.30;39.40
48551;DHT22;34397;51.176;6.738;2022-10-16T12:00:34;25.40;39.20
48551;DHT22;34397;51.176;6.738;2022-10-16T12:03:17;25.80;38.30
48551;DHT22;34397;51.176;6.738;2022-10-16T12:06:05;25.90;38.30
48551;DHT22;34397;51.176;6.738;2022-10-16T12:08:48;26.10;37.50
48551;DHT22;34397;51.176;6.738;2022-10-16T12:11:30;26.20;37.40
48551;DHT22;34397;51.176;6.738;2022-10-16T12:14:22;26.30;36.60
48551;DHT22;34397;51.176;6.738;2022-10-16T12:17:24;26.30;36.80
48551;DHT22;34397;51.176;6.738;2022-10-16T12:19:59;26.40;36.50
48551;DHT22;34397;51.176;6.738;2022-10-16T12:22:33;26.60;36.50
48551;DHT22;34397;51.176;6.738;2022-10-16T12:25:17;26.90;36.80
48551;DHT22;34397;51.176;6.738;2022-10-16T12:27:59;27.20;37.00
48551;DHT22;34397;51.176;6.738;2022-10-16T12:30:35;27.60;35.20
48551;DHT22;34397;51.176;6.738;2022-10-16T12:33:22;28.00;35.30
48551;DHT22;34397;51.176;6.738;2022-10-16T12:35:57;28.30;34.20
48551;DHT22;34397;51.176;6.738;2022-10-16T12:38:36;28.50;34.80
48551;DHT22;34397;51.176;6.738;2022-10-16T12:41:25;28.70;33.20
48551;DHT22;34397;51.176;6.738;2022-10-16T12:43:59;28.90;33.70
48551;DHT22;34397;51.176;6.738;2022-10-16T12:46:38;28.90;33.50
48551;DHT22;34397;51.176;6.738;2022-10-16T12:49:28;28.70;32.70
48551;DHT22;34397;51.176;6.738;2022-10-16T12:52:02;28.50;33.00
48551;DHT22;34397;51.176;6.738;2022-10-16T12:54:37;28.30;33.00
48551;DHT22;34397;51.176;6.738;2022-10-16T12:57:29;28.00;32.90
48551;DHT22;34397;51.176;6.738;2022-10-16T13:00:15;27.60;33.20
48551;DHT22;34397;51.176;6.738;2022-10-16T13:03:24;27.30;34.00
48551;DHT22;34397;51.176;6.738;2022-10-16T13:06:15;26.80;33.30
48551;DHT22;34397;51.176;6.738;2022-10-16T13:09:07;26.40;34.40
48551;DHT22;34397;51.176;6.738;2022-10-16T13:12:19;26.10;36.20
48551;DHT22;34397;51.176;6.738;2022-10-16T13:15:22;25.90;35.30
48551;DHT22;34397;51.176;6.738;2022-10-16T13:18:04;25.90;35.40
48551;DHT22;34397;51.176;6.738;2022-10-16T13:20:46;26.00;35.60
48551;DHT22;34397;51.176;6.738;2022-10-16T13:23:32;26.30;35.70
48551;DHT22;34397;51.176;6.738;2022-10-16T13:26:14;26.50;35.10
48551;DHT22;34397;51.176;6.738;2022-10-16T13:28:51;26.80;35.10
48551;DHT22;34397;51.176;6.738;2022-10-16T13:31:24;27.10;35.00
48551;DHT22;34397;51.176;6.738;2022-10-16T13:33:58;27.40;34.80
48551;DHT22;34397;51.176;6.738;2022-10-16T13:36:35;27.70;34.00
48551;DHT22;34397;51.176;6.738;2022-10-16T13:39:20;27.90;33.40
48551;DHT22;34397;51.176;6.738;2022-10-16T13:42:04;28.20;33.20
48551;DHT22;34397;51.176;6.738;2022-10-16T13:44:42;28.40;33.70
48551;DHT22;34397;51.176;6.738;2022-10-16T13:47:16;28.60;32.50
48551;DHT22;34397;51.176;6.738;2022-10-16T13:49:59;28.60;32.10
48551;DHT22;34397;51.176;6.738;2022-10-16T13:52:32;28.50;31.90
48551;DHT22;34397;51.176;6.738;2022-10-16T13:55:04;28.50;32.50
48551;DHT22;34397;51.176;6.738;2022-10-16T13:57:42;28.50;32.50
48551;DHT22;34397;51.176;6.738;2022-10-16T14:00:20;28.40;31.90
48551;DHT22;34397;51.176;6.738;2022-10-16T14:02:57;28.20;33.00
48551;DHT22;34397;51.176;6.738;2022-10-16T14:05:31;27.90;32.20
48551;DHT22;34397;51.176;6.738;2022-10-16T14:08:03;27.50;33.00
48551;DHT22;34397;51.176;6.738;2022-10-16T14:10:35;27.10;33.70
48551;DHT22;34397;51.176;6.738;2022-10-16T14:13:07;26.70;34.50
48551;DHT22;34397;51.176;6.738;2022-10-16T14:15:49;26.30;34.30
48551;DHT22;34397;51.176;6.738;2022-10-16T14:18:24;25.90;34.30
48551;DHT22;34397;51.176;6.738;2022-10-16T14:21:03;25.60;34.70
48551;DHT22;34397;51.176;6.738;2022-10-16T14:23:37;25.20;35.90
48551;DHT22;34397;51.176;6.738;2022-10-16T14:26:14;24.90;35.90
48551;DHT22;34397;51.176;6.738;2022-10-16T14:28:48;24.60;38.60
48551;DHT22;34397;51.176;6.738;2022-10-16T14:31:28;24.40;38.40
48551;DHT22;34397;51.176;6.738;2022-10-16T14:34:01;24.20;37.70
48551;DHT22;34397;51.176;6.738;2022-10-16T14:36:33;24.00;38.10
48551;DHT22;34397;51.176;6.738;2022-10-16T14:39:14;23.80;37.70
48551;DHT22;34397;51.176;6.738;2022-10-16T14:41:50;23.60;38.00
48551;DHT22;34397;51.176;6.738;2022-10-16T14:44:27;23.40;40.30
48551;DHT22;34397;51.176;6.738;2022-10-16T14:47:12;23.20;41.00
48551;DHT22;34397;51.176;6.738;2022-10-16T14:49:45;23.00;40.40
48551;DHT22;34397;51.176;6.738;2022-10-16T14:52:17;22.80;41.20
48551;DHT22;34397;51.176;6.738;2022-10-16T14:54:49;22.60;42.20
48551;DHT22;34397;51.176;6.738;2022-10-16T14:57:27;22.50;41.50
48551;DHT22;34397;51.176;6.738;2022-10-16T15:00:04;22.40;41.40
48551;DHT22;34397;51.176;6.738;2022-10-16T15:02:43;22.20;43.30
48551;DHT22;34397;51.176;6.738;2022-10-16T15:05:17;22.10;44.50
48551;DHT22;34397;51.176;6.738;2022-10-16T15:07:53;22.00;45.50
48551;DHT22;34397;51.176;6.738;2022-10-16T15:10:27;21.90;43.90
48551;DHT22;34397;51.176;6.738;2022-10-16T15:13:00;21.80;43.30
48551;DHT22;34397;51.176;6.738;2022-10-16T15:15:37;21.70;44.10
48551;DHT22;34397;51.176;6.738;2022-10-16T15:18:11;21.60;45.40
48551;DHT22;34397;51.176;6.738;2022-10-16T15:20:44;21.50;46.00
48551;DHT22;34397;51.176;6.738;2022-10-16T15:23:20;21.40;46.10
48551;DHT22;34397;51.176;6.738;2022-10-16T15:25:54;21.40;47.10
48551;DHT22;34397;51.176;6.738;2022-10-16T15:28:27;21.30;46.90
48551;DHT22;34397;51.176;6.738;2022-10-16T15:30:59;21.30;47.20
48551;DHT22;34397;51.176;6.738;2022-10-16T15:33:32;21.20;45.60
48551;DHT22;34397;51.176;6.738;2022-10-16T15:36:05;21.10;46.20
48551;DHT22;34397;51.176;6.738;2022-10-16T15:38:38;21.00;46.80
48551;DHT22;34397;51.176;6.738;2022-10-16T15:41:10;20.90;47.50
48551;DHT22;34397;51.176;6.738;2022-10-16T15:43:42;20.80;47.50
48551;DHT22;34397;51.176;6.738;2022-10-16T15:46:14;20.80;47.50
48551;DHT22;34397;51.176;6.738;2022-10-16T15:48:48;20.70;47.50
48551;DHT22;34397;51.176;6.738;2022-10-16T15:51:21;20.60;47.60
48551;DHT22;34397;51.176;6.738;2022-10-16T15:53:52;20.60;48.00
48551;DHT22;34397;51.176;6.738;2022-10-16T15:56:24;20.50;47.80
48551;DHT22;34397;51.176;6.738;2022-10-16T15:59:05;20.40;48.20
48551;DHT22;34397;51.176;6.738;2022-10-16T16:01:57;20.30;48.60
48551;DHT22;34397;51.176;6.738;2022-10-16T16:04:44;20.30;49.20
48551;DHT22;34397;51.176;6.738;2022-10-16T16:07:42;20.20;49.20
48551;DHT22;34397;51.176;6.738;2022-10-16T16:10:26;20.10;49.00
48551;DHT22;34397;51.176;6.738;2022-10-16T16:13:07;20.10;49.10
48551;DHT22;34397;51.176;6.738;2022-10-16T16:16:12;20.00;49.20
48551;DHT22;34397;51.176;6.738;2022-10-16T16:19:05;20.00;49.40
48551;DHT22;34397;51.176;6.738;2022-10-16T16:22:07;19.90;49.50
48551;DHT22;34397;51.176;6.738;2022-10-16T16:24:51;19.80;49.30
48551;DHT22;34397;51.176;6.738;2022-10-16T16:27:39;19.70;49.90